createdAt,value
2024-01-15T00:00:36.019Z,100286.59
2024-01-15T00:03:03.924Z,100288.31
2024-01-15T00:05:30.993Z,100279.47
2024-01-15T00:07:58.035Z,100279.38
2024-01-15T00:10:25.188Z,100276.72
2024-01-15T00:12:52.202Z,100273.25
2024-01-15T00:15:19.223Z,100265.34
2024-01-15T00:17:47.264Z,100263.56
2024-01-15T00:20:14.357Z,100250.47
2024-01-15T00:22:41.368Z,100242.56
2024-01-15T00:26:35.828Z,100237.22
2024-01-15T00:29:33.770Z,100237.19
2024-01-15T00:32:00.719Z,100235.41
2024-01-15T00:34:27.752Z,100219.63
2024-01-15T00:36:55.418Z,100229.38
2024-01-15T00:39:22.361Z,100220.66
2024-01-15T00:41:49.366Z,100210.97
2024-01-15T00:44:16.387Z,100218.00
2024-01-15T00:46:47.306Z,100204.81
2024-01-15T00:49:15.033Z,100195.97
2024-01-15T00:51:42.457Z,100197.63
2024-01-15T00:54:09.838Z,100198.53
2024-01-15T00:56:38.263Z,100208.16
2024-01-15T00:59:05.147Z,100209.91
2024-01-15T01:01:32.777Z,100202.78
2024-01-15T01:03:59.864Z,100207.19
2024-01-15T01:06:26.933Z,100207.16
2024-01-15T01:08:53.825Z,100208.06
2024-01-15T01:11:20.810Z,100210.75
2024-01-15T01:13:47.734Z,100206.34
2024-01-15T01:16:14.575Z,100206.34
2024-01-15T01:18:41.624Z,100203.66
2024-01-15T01:21:08.632Z,100210.00
2024-01-15T01:23:35.614Z,100219.63
2024-01-15T01:26:02.572Z,100218.84
2024-01-15T01:28:29.622Z,100211.81
2024-01-15T01:30:56.687Z,100217.16
2024-01-15T01:33:23.751Z,100212.09
2024-01-15T01:35:50.799Z,100196.44
2024-01-15T01:38:17.814Z,100197.56
2024-01-15T01:40:44.756Z,100204.25
2024-01-15T01:43:11.756Z,100200.97
2024-01-15T01:45:39.867Z,100200.88
2024-01-15T01:48:07.676Z,100197.31
2024-01-15T01:50:34.885Z,100186.69
2024-01-15T01:53:05.482Z,100186.72
2024-01-15T01:55:34.693Z,100177.81
2024-01-15T01:58:03.182Z,100173.34
2024-01-15T02:00:32.430Z,100162.00
2024-01-15T02:02:59.622Z,100169.94
2024-01-15T02:05:28.045Z,100169.84
2024-01-15T02:07:55.235Z,100163.63
2024-01-15T02:10:22.214Z,100152.13
2024-01-15T02:12:49.840Z,100138.03
2024-01-15T02:15:17.123Z,100138.88
2024-01-15T02:18:08.340Z,100119.47
2024-01-15T02:20:35.845Z,100119.47
2024-01-15T02:23:16.681Z,100110.63
2024-01-15T02:25:48.357Z,100094.75
2024-01-15T02:28:18.462Z,100107.06
2024-01-15T02:30:46.262Z,100122.84
2024-01-15T02:33:14.166Z,100115.84
2024-01-15T02:35:41.743Z,100111.50
2024-01-15T02:38:09.300Z,100116.00
2024-01-15T02:40:36.923Z,100128.38
2024-01-15T02:43:04.209Z,100128.44
2024-01-15T02:45:31.752Z,100134.59
2024-01-15T02:47:58.760Z,100128.44
2024-01-15T02:50:25.762Z,100131.06
2024-01-15T02:52:53.421Z,100136.34
2024-01-15T02:55:20.386Z,100125.78
2024-01-15T02:57:47.582Z,100130.34
2024-01-15T03:00:15.323Z,100131.16
2024-01-15T03:02:48.652Z,100123.25
2024-01-15T03:05:16.386Z,100113.59
2024-01-15T03:07:44.280Z,100116.31
2024-01-15T03:10:11.264Z,100120.09
2024-01-15T03:12:38.425Z,100109.63
2024-01-15T03:15:06.496Z,100104.31
2024-01-15T03:17:33.684Z,100105.97
2024-01-15T03:20:00.920Z,100102.56
2024-01-15T03:22:27.938Z,100092.03
2024-01-15T03:24:55.009Z,100089.50
2024-01-15T03:27:21.899Z,100077.97
2024-01-15T03:29:48.862Z,100057.72
2024-01-15T03:32:17.422Z,100058.47
2024-01-15T03:34:44.696Z,100050.47
2024-01-15T03:37:11.698Z,100046.88
2024-01-15T03:39:38.698Z,100040.69
2024-01-15T03:42:06.126Z,100032.78
2024-01-15T03:44:33.068Z,100030.13
2024-01-15T03:47:00.186Z,100023.06
2024-01-15T03:49:27.220Z,100023.00
2024-01-15T03:51:54.259Z,100031.00
2024-01-15T03:54:21.397Z,100028.25
2024-01-15T03:56:48.580Z,100029.34
2024-01-15T03:59:15.727Z,100019.72
2024-01-15T04:01:42.688Z,100015.19
2024-01-15T04:04:09.633Z,100019.59
2024-01-15T04:06:36.759Z,100017.06
2024-01-15T04:09:04.014Z,100016.22
2024-01-15T04:11:31.038Z,100024.19
2024-01-15T04:13:57.918Z,100026.03
2024-01-15T04:16:24.934Z,100011.06
2024-01-15T04:18:52.047Z,100021.38
2024-01-15T04:21:19.848Z,100033.09
2024-01-15T04:23:46.929Z,100044.28
2024-01-15T04:26:13.951Z,100023.84
2024-01-15T04:28:41.582Z,100035.06
2024-01-15T04:31:08.775Z,100035.06
2024-01-15T04:33:36.080Z,100024.44
2024-01-15T04:36:05.215Z,100019.03
2024-01-15T04:38:33.594Z,100013.66
2024-01-15T04:41:00.561Z,100000.38
2024-01-15T04:43:27.437Z,99986.22
2024-01-15T04:45:54.332Z,99990.53
2024-01-15T04:48:21.382Z,99989.56
2024-01-15T04:50:49.150Z,99993.06
2024-01-15T04:53:16.052Z,99985.97
2024-01-15T04:55:44.079Z,99970.94
2024-01-15T04:58:10.983Z,99967.41
2024-01-15T05:00:37.885Z,99962.16
2024-01-15T05:03:05.520Z,99962.06
2024-01-15T05:05:32.453Z,99972.56
2024-01-15T05:07:59.353Z,99966.53
2024-01-15T05:10:26.559Z,99966.59
2024-01-15T05:12:53.655Z,99952.59
2024-01-15T05:15:21.044Z,99951.72
2024-01-15T05:17:48.202Z,99956.06
2024-01-15T05:20:15.842Z,99960.41
2024-01-15T05:22:42.850Z,99958.59
2024-01-15T05:25:09.702Z,99966.41
2024-01-15T05:27:36.617Z,99969.88
2024-01-15T05:30:05.053Z,99960.19
2024-01-15T05:32:32.678Z,99974.16
2024-01-15T05:34:59.678Z,99967.97
2024-01-15T05:37:26.890Z,99974.06
2024-01-15T05:39:53.904Z,99965.22
2024-01-15T05:42:20.941Z,99955.53
2024-01-15T05:44:47.860Z,99959.84
2024-01-15T05:47:14.787Z,99955.44
2024-01-15T05:49:42.018Z,99952.75
2024-01-15T05:52:09.020Z,99961.44
2024-01-15T05:54:36.103Z,99951.81
2024-01-15T05:57:06.831Z,99952.75
2024-01-15T05:59:37.479Z,99956.25
2024-01-15T06:02:05.169Z,99950.03
2024-01-15T06:04:32.254Z,99948.22
2024-01-15T06:06:59.423Z,99953.50
2024-01-15T06:09:26.475Z,99942.94
2024-01-15T06:11:53.426Z,99941.19
2024-01-15T06:14:20.337Z,99943.81
2024-01-15T06:16:47.386Z,99946.56
2024-01-15T06:19:14.343Z,99952.63
2024-01-15T06:21:41.413Z,99951.72
2024-01-15T06:24:08.330Z,99940.25
2024-01-15T06:26:35.434Z,99937.56
2024-01-15T06:29:04.184Z,99934.06
2024-01-15T06:31:31.432Z,99934.06
2024-01-15T06:33:58.684Z,99921.75
2024-01-15T06:36:25.842Z,99919.97
2024-01-15T06:38:52.833Z,99919.03
2024-01-15T06:41:19.830Z,99913.78
2024-01-15T06:43:46.726Z,99912.00
2024-01-15T06:46:23.614Z,99909.34
2024-01-15T06:48:52.878Z,99901.41
2024-01-15T06:51:19.936Z,99908.47
2024-01-15T06:53:46.977Z,99906.72
2024-01-15T06:56:14.043Z,99919.97
2024-01-15T06:58:41.142Z,99919.13
2024-01-15T07:01:10.066Z,99917.34
2024-01-15T07:03:37.077Z,99911.13
2024-01-15T07:06:04.628Z,99904.03
2024-01-15T07:08:31.583Z,99913.66
2024-01-15T07:10:58.587Z,99926.16
2024-01-15T07:13:25.692Z,99922.53
2024-01-15T07:15:52.913Z,99916.38
2024-01-15T07:18:20.035Z,99931.28
2024-01-15T07:20:47.101Z,99936.44
2024-01-15T07:23:14.083Z,99929.34
2024-01-15T07:25:41.001Z,99925.78
2024-01-15T07:28:07.996Z,99915.13
2024-01-15T07:30:35.002Z,99915.09
2024-01-15T07:33:02.229Z,99907.19
2024-01-15T07:35:29.359Z,99911.59
2024-01-15T07:37:56.282Z,99925.69
2024-01-15T07:40:23.256Z,99914.16
2024-01-15T07:42:50.342Z,99922.16
2024-01-15T07:45:17.539Z,99921.16
2024-01-15T07:47:45.708Z,99919.66
2024-01-15T07:50:12.967Z,99927.53
2024-01-15T07:52:45.166Z,99936.97
2024-01-15T07:55:12.199Z,99935.06
2024-01-15T07:57:39.229Z,99938.63
2024-01-15T08:00:07.304Z,99940.59
2024-01-15T08:02:37.118Z,99942.97
2024-01-15T08:05:05.046Z,99933.19
2024-01-15T08:07:32.125Z,99932.31
2024-01-15T08:09:59.706Z,99936.56
2024-01-15T08:12:26.859Z,99927.03
2024-01-15T08:14:53.955Z,99934.06
2024-01-15T08:17:21.004Z,99934.94
2024-01-15T08:19:48.326Z,99935.66
2024-01-15T08:22:15.421Z,99945.13
2024-01-15T08:24:42.422Z,99942.38
2024-01-15T08:27:09.976Z,99943.19
2024-01-15T08:29:36.892Z,99938.66
2024-01-15T08:32:04.192Z,99940.25
2024-01-15T08:34:32.514Z,99941.78
2024-01-15T08:36:59.586Z,99942.72
2024-01-15T08:39:26.484Z,99931.25
2024-01-15T08:41:53.415Z,99933.75
2024-01-15T08:44:20.448Z,99931.00
2024-01-15T08:46:47.380Z,99932.59
2024-01-15T08:49:14.334Z,99935.34
2024-01-15T08:51:41.434Z,99928.28
2024-01-15T08:54:09.727Z,99920.25
2024-01-15T08:56:36.787Z,99926.38
2024-01-15T08:59:03.734Z,99917.59
2024-01-15T09:01:31.138Z,99925.59
2024-01-15T09:03:58.235Z,99928.91
2024-01-15T09:06:25.340Z,99924.44
2024-01-15T09:08:52.323Z,99924.09
2024-01-15T09:11:19.223Z,99917.69
2024-01-15T09:13:46.157Z,99919.13
2024-01-15T09:16:13.181Z,99926.78
2024-01-15T09:18:40.344Z,99923.56
2024-01-15T09:21:09.458Z,99924.59
2024-01-15T09:23:36.962Z,99925.31
2024-01-15T09:26:03.962Z,99929.75
2024-01-15T09:28:30.994Z,99918.94
2024-01-15T09:30:58.003Z,99928.31
2024-01-15T09:33:25.094Z,99928.84
2024-01-15T09:35:52.106Z,99931.28
2024-01-15T09:38:20.349Z,99936.31
2024-01-15T09:40:48.208Z,99937.41
2024-01-15T09:43:17.040Z,99950.75
2024-01-15T09:45:45.265Z,99949.28
2024-01-15T09:48:13.918Z,99933.31
2024-01-15T09:50:41.057Z,99944.88
2024-01-15T09:53:08.054Z,99923.63
2024-01-15T09:55:35.308Z,99934.00
2024-01-15T09:58:04.093Z,99923.19
2024-01-15T10:00:34.284Z,99921.56
2024-01-15T10:03:01.493Z,99928.00
2024-01-15T10:05:28.906Z,99928.38
2024-01-15T10:07:58.738Z,99928.94
2024-01-15T10:10:27.584Z,99918.94
2024-01-15T10:12:56.443Z,99909.63
2024-01-15T10:15:25.076Z,99911.94
2024-01-15T10:17:52.178Z,99908.00
2024-01-15T10:20:19.466Z,99892.91
2024-01-15T10:22:49.866Z,99891.13
2024-01-15T10:25:17.409Z,99881.13
2024-01-15T10:27:45.015Z,99878.44
2024-01-15T10:30:15.265Z,99865.16
2024-01-15T10:32:42.438Z,99871.09
2024-01-15T10:35:09.771Z,99867.63
2024-01-15T10:37:36.748Z,99863.22
2024-01-15T10:40:07.766Z,99859.28
2024-01-15T10:42:35.033Z,99862.38
2024-01-15T10:45:02.363Z,99858.47
2024-01-15T10:47:30.721Z,99860.25
2024-01-15T10:49:58.292Z,99850.31
2024-01-15T10:52:26.127Z,99857.09
2024-01-15T10:54:54.445Z,99835.03
2024-01-15T10:57:23.672Z,99836.09
2024-01-15T10:59:50.600Z,99827.75
2024-01-15T11:02:18.329Z,99816.88
2024-01-15T11:04:45.584Z,99809.72
2024-01-15T11:07:14.749Z,99799.94
2024-01-15T11:09:41.683Z,99800.56
2024-01-15T11:12:12.996Z,99784.84
2024-01-15T11:14:49.507Z,99773.19
2024-01-15T11:17:19.030Z,99776.78
2024-01-15T11:19:49.424Z,99766.66
2024-01-15T11:22:31.670Z,99751.31
2024-01-15T11:25:05.595Z,99759.25
2024-01-15T11:27:52.723Z,99747.91
2024-01-15T11:32:48.715Z,99728.78
2024-01-15T11:35:16.275Z,99728.75
2024-01-15T11:37:52.642Z,99732.78
2024-01-15T11:40:45.689Z,99726.19
2024-01-15T11:43:14.602Z,99711.56
2024-01-15T11:45:42.506Z,99706.78
2024-01-15T11:48:15.861Z,99715.03
2024-01-15T11:50:50.674Z,99703.25
2024-01-15T11:53:46.662Z,99691.28
2024-01-15T11:56:18.887Z,99684.53
2024-01-15T11:58:46.345Z,99674.53
2024-01-15T12:01:13.691Z,99677.00
2024-01-15T12:03:40.742Z,99672.03
2024-01-15T12:06:08.710Z,99661.78
2024-01-15T12:08:36.500Z,99657.16
2024-01-15T12:11:12.390Z,99648.06
2024-01-15T12:13:39.416Z,99646.84
2024-01-15T12:16:06.636Z,99658.66
2024-01-15T12:18:33.809Z,99654.53
2024-01-15T12:21:03.297Z,99656.75
2024-01-15T12:23:30.906Z,99659.81
2024-01-15T12:25:57.878Z,99643.34
2024-01-15T12:28:24.860Z,99641.97
2024-01-15T12:30:52.321Z,99619.34
2024-01-15T12:33:21.527Z,99611.72
2024-01-15T12:35:48.641Z,99612.22
2024-01-15T12:38:15.589Z,99606.53
2024-01-15T12:40:47.948Z,99599.06
2024-01-15T12:43:14.968Z,99602.63
2024-01-15T12:45:42.380Z,99597.72
2024-01-15T12:48:10.287Z,99598.28
2024-01-15T12:50:37.240Z,99603.22
2024-01-15T12:53:04.392Z,99591.47
2024-01-15T12:55:31.327Z,99579.81
2024-01-15T12:57:58.329Z,99587.66
2024-01-15T13:00:27.725Z,99580.47
2024-01-15T13:02:56.130Z,99581.97
2024-01-15T13:05:24.913Z,99569.28
2024-01-15T13:07:52.287Z,99557.31
2024-01-15T13:10:19.129Z,99545.25
2024-01-15T13:12:46.261Z,99546.66
2024-01-15T13:15:14.400Z,99541.72
2024-01-15T13:17:43.653Z,99550.13
2024-01-15T13:20:12.775Z,99532.38
2024-01-15T13:22:41.677Z,99530.28
2024-01-15T13:25:10.253Z,99518.63
2024-01-15T13:27:38.736Z,99533.50
2024-01-15T13:30:09.252Z,99525.97
2024-01-15T13:32:36.855Z,99526.72
2024-01-15T13:35:06.782Z,99530.88
2024-01-15T13:37:33.890Z,99536.00
2024-01-15T13:40:00.848Z,99533.09
2024-01-15T13:42:28.732Z,99527.44
2024-01-15T13:44:56.214Z,99532.16
2024-01-15T13:47:23.617Z,99524.06
2024-01-15T13:49:52.695Z,99540.78
2024-01-15T13:52:21.217Z,99529.94
2024-01-15T13:54:50.479Z,99531.97
2024-01-15T13:57:20.462Z,99520.47
2024-01-15T13:59:47.714Z,99514.94
2024-01-15T14:02:19.081Z,99516.84
2024-01-15T14:04:50.049Z,99511.53
2024-01-15T14:07:17.493Z,99509.63
2024-01-15T14:09:44.579Z,99514.41
2024-01-15T14:12:11.651Z,99523.13
2024-01-15T14:14:38.506Z,99532.69
2024-01-15T14:17:05.524Z,99525.78
2024-01-15T14:19:32.671Z,99519.72
2024-01-15T14:21:59.718Z,99521.41
2024-01-15T14:24:26.692Z,99506.31
2024-01-15T14:26:53.595Z,99501.66
2024-01-15T14:29:21.940Z,99504.97
2024-01-15T14:31:49.024Z,99508.66
2024-01-15T14:34:16.686Z,99514.84
2024-01-15T14:36:43.768Z,99519.31
2024-01-15T14:39:13.446Z,99522.72
2024-01-15T14:41:40.559Z,99507.91
2024-01-15T14:44:07.660Z,99507.06
2024-01-15T14:46:34.541Z,99522.25
2024-01-15T14:49:01.481Z,99514.28
2024-01-15T14:51:28.469Z,99505.38
2024-01-15T14:53:55.917Z,99498.31
2024-01-15T14:56:23.413Z,99501.94
2024-01-15T14:58:50.754Z,99495.91
2024-01-15T15:01:17.982Z,99490.88
2024-01-15T15:03:49.160Z,99488.44
2024-01-15T15:06:17.731Z,99492.25
2024-01-15T15:08:44.665Z,99487.13
2024-01-15T15:11:12.689Z,99491.00
2024-01-15T15:13:45.503Z,99471.78
2024-01-15T15:16:14.900Z,99461.47
2024-01-15T15:18:47.353Z,99473.22
2024-01-15T15:21:14.650Z,99471.66
2024-01-15T15:23:41.629Z,99471.00
2024-01-15T15:26:08.564Z,99461.50
2024-01-15T15:28:38.579Z,99452.88
2024-01-15T15:31:12.395Z,99451.59
2024-01-15T15:33:39.514Z,99458.91
2024-01-15T15:36:06.825Z,99463.56
2024-01-15T15:38:34.330Z,99460.28
2024-01-15T15:41:02.310Z,99461.19
2024-01-15T15:43:30.520Z,99461.50
2024-01-15T15:46:01.206Z,99473.50
2024-01-15T15:48:28.768Z,99475.56
2024-01-15T15:51:01.017Z,99489.34
2024-01-15T15:53:28.076Z,99489.94
2024-01-15T15:55:55.024Z,99491.34
2024-01-15T15:58:21.924Z,99495.16
2024-01-15T16:00:49.185Z,99513.06
2024-01-15T16:03:16.735Z,99515.06
2024-01-15T16:05:51.825Z,99511.84
2024-01-15T16:08:21.243Z,99515.63
2024-01-15T16:10:52.892Z,99512.50
2024-01-15T16:13:20.573Z,99506.72
2024-01-15T16:15:47.799Z,99498.19
2024-01-15T16:23:19.724Z,99502.28
2024-01-15T16:23:34.627Z,99500.16
2024-01-15T16:24:11.431Z,99519.19
2024-01-15T16:26:38.333Z,99523.91
2024-01-15T16:29:05.609Z,99516.25
2024-01-15T16:31:32.700Z,99533.25
2024-01-15T16:34:04.901Z,99528.25
2024-01-15T16:36:34.052Z,99528.41
2024-01-15T16:39:02.582Z,99535.78
2024-01-15T16:41:30.645Z,99532.63
2024-01-15T16:43:57.828Z,99529.31
2024-01-15T16:46:24.834Z,99545.19
2024-01-15T16:48:51.992Z,99547.09
2024-01-15T16:51:18.981Z,99552.66
2024-01-15T16:53:45.975Z,99566.91
2024-01-15T16:56:12.888Z,99566.25
2024-01-15T16:58:39.912Z,99563.03
2024-01-15T17:01:09.986Z,99564.03
2024-01-15T17:03:37.169Z,99572.25
2024-01-15T17:06:04.274Z,99584.72
2024-01-15T17:08:31.740Z,99577.03
2024-01-15T17:11:01.381Z,99571.94
2024-01-15T17:13:29.608Z,99579.88
2024-01-15T17:15:56.637Z,99580.22
2024-01-15T17:18:23.604Z,99578.75
2024-01-15T17:20:50.549Z,99580.63
2024-01-15T17:23:17.571Z,99587.25
2024-01-15T17:25:44.544Z,99582.19
2024-01-15T17:28:11.508Z,99587.59
2024-01-15T17:30:38.427Z,99582.38
2024-01-15T17:33:05.753Z,99581.63
2024-01-15T17:35:32.922Z,99593.22
2024-01-15T17:38:00.816Z,99582.84
2024-01-15T17:40:27.834Z,99591.91
2024-01-15T17:42:54.680Z,99595.66
2024-01-15T17:45:22.081Z,99603.78
2024-01-15T17:47:52.646Z,99603.16
2024-01-15T17:50:20.152Z,99604.94
2024-01-15T17:52:47.231Z,99604.19
2024-01-15T17:55:14.471Z,99608.84
2024-01-15T17:57:41.816Z,99610.72
2024-01-15T18:00:10.204Z,99607.16
2024-01-15T18:02:37.449Z,99607.16
2024-01-15T18:05:05.500Z,99609.97
2024-01-15T18:07:32.607Z,99610.88
2024-01-15T18:10:00.011Z,99620.69
2024-01-15T18:12:26.908Z,99623.56
2024-01-15T18:14:54.798Z,99635.09
2024-01-15T18:17:24.897Z,99640.53
2024-01-15T18:19:53.199Z,99645.94
2024-01-15T18:22:20.556Z,99653.06
2024-01-15T18:24:47.484Z,99659.38
2024-01-15T18:27:14.585Z,99668.25
2024-01-15T18:29:41.654Z,99670.03
2024-01-15T18:32:08.757Z,99679.81
2024-01-15T18:34:37.218Z,99677.34
2024-01-15T18:37:05.300Z,99675.69
2024-01-15T18:39:32.241Z,99677.66
2024-01-15T18:41:59.227Z,99676.78
2024-01-15T18:44:26.202Z,99681.31
2024-01-15T18:46:53.205Z,99679.69
2024-01-15T18:49:22.125Z,99686.06
2024-01-15T18:51:54.333Z,99679.97
2024-01-15T18:54:22.504Z,99700.44
2024-01-15T18:56:49.611Z,99690.00
2024-01-15T18:59:16.773Z,99695.34
2024-01-15T19:01:44.928Z,99699.88
2024-01-15T19:04:13.449Z,99715.88
2024-01-15T19:06:42.042Z,99708.16
2024-01-15T19:09:11.447Z,99705.59
2024-01-15T19:11:38.871Z,99716.31
2024-01-15T19:14:07.050Z,99711.97
2024-01-15T19:16:34.109Z,99719.97
2024-01-15T19:19:01.106Z,99710.34
2024-01-15T19:21:28.049Z,99710.41
2024-01-15T19:23:55.081Z,99714.06
2024-01-15T19:26:23.262Z,99726.47
2024-01-15T19:28:50.311Z,99719.56
2024-01-15T19:31:18.285Z,99719.69
2024-01-15T19:33:45.326Z,99717.06
2024-01-15T19:36:25.838Z,99723.19
2024-01-15T19:38:54.132Z,99725.91
2024-01-15T19:41:22.152Z,99725.97
2024-01-15T19:43:49.335Z,99734.06
2024-01-15T19:46:16.933Z,99734.94
2024-01-15T19:48:44.071Z,99730.63
2024-01-15T19:51:13.716Z,99740.22
2024-01-15T19:53:42.389Z,99739.41
2024-01-15T19:56:09.901Z,99741.34
2024-01-15T19:58:38.326Z,99753.84
2024-01-15T20:01:06.241Z,99762.72
2024-01-15T20:03:33.352Z,99759.28
2024-01-15T20:06:00.604Z,99771.75
2024-01-15T20:08:27.738Z,99780.81
2024-01-15T20:10:56.960Z,99779.31
2024-01-15T20:13:23.945Z,99784.72
2024-01-15T20:15:51.189Z,99778.72
2024-01-15T20:18:19.088Z,99784.16
2024-01-15T20:20:46.353Z,99792.94
2024-01-15T20:23:13.473Z,99796.56
2024-01-15T20:25:40.486Z,99800.13
2024-01-15T20:28:07.867Z,99803.78
2024-01-15T20:30:35.037Z,99810.81
2024-01-15T20:33:02.423Z,99815.31
2024-01-15T20:35:30.042Z,99818.91
2024-01-15T20:37:58.520Z,99818.03
2024-01-15T20:40:25.869Z,99815.47
2024-01-15T20:42:53.151Z,99821.81
2024-01-15T20:45:20.191Z,99830.50
2024-01-15T20:47:47.194Z,99839.34
2024-01-15T20:50:14.470Z,99830.63
2024-01-15T20:52:41.535Z,99835.06
2024-01-15T20:55:10.203Z,99847.41
2024-01-15T20:57:37.476Z,99855.44
2024-01-15T21:00:08.325Z,99846.72
2024-01-15T21:02:37.818Z,99848.59
2024-01-15T21:05:06.499Z,99853.16
2024-01-15T21:07:33.657Z,99862.25
2024-01-15T21:10:00.841Z,99857.09
2024-01-15T21:12:28.045Z,99866.78
2024-01-15T21:14:57.109Z,99867.78
2024-01-15T21:17:24.741Z,99867.97
2024-01-15T21:19:57.173Z,99871.72
2024-01-15T21:22:24.567Z,99872.59
2024-01-15T21:24:52.098Z,99872.72
2024-01-15T21:27:19.199Z,99874.56
2024-01-15T21:29:46.711Z,99885.31
2024-01-15T21:32:13.771Z,99889.78
2024-01-15T21:34:43.739Z,99888.06
2024-01-15T21:37:11.004Z,99894.13
2024-01-15T21:39:39.393Z,99897.63
2024-01-15T21:42:06.576Z,99894.25
2024-01-15T21:44:33.941Z,99891.59
2024-01-15T21:47:01.273Z,99896.22
2024-01-15T21:49:28.595Z,99899.78
2024-01-15T21:51:55.772Z,99903.53
2024-01-15T21:54:22.900Z,99907.94
2024-01-15T21:56:50.073Z,99908.09
2024-01-15T21:59:17.411Z,99917.00
2024-01-15T22:01:44.566Z,99911.06
2024-01-15T22:04:12.521Z,99908.47
2024-01-15T22:06:39.895Z,99913.81
2024-01-15T22:09:07.322Z,99910.31
2024-01-15T22:11:34.486Z,99908.59
2024-01-15T22:14:01.581Z,99911.34
2024-01-15T22:16:28.649Z,99921.88
2024-01-15T22:18:58.659Z,99917.63
2024-01-15T22:21:27.337Z,99933.44
2024-01-15T22:23:54.209Z,99925.53
2024-01-15T22:26:21.257Z,99928.16
2024-01-15T22:28:48.328Z,99928.16
2024-01-15T22:31:15.238Z,99932.69
2024-01-15T22:33:42.313Z,99929.31
2024-01-15T22:36:09.426Z,99935.50
2024-01-15T22:38:36.372Z,99933.78
2024-01-15T22:41:03.857Z,99934.88
2024-01-15T22:43:30.931Z,99944.47
2024-01-15T22:45:57.880Z,99944.63
2024-01-15T22:48:25.799Z,99948.97
2024-01-15T22:50:52.819Z,99948.16
2024-01-15T22:53:19.746Z,99949.94
2024-01-15T22:55:46.761Z,99951.72
2024-01-15T22:58:13.699Z,99952.56
2024-01-15T23:00:44.912Z,99957.91
2024-01-15T23:03:12.736Z,99962.47
2024-01-15T23:05:40.179Z,99966.09
2024-01-15T23:08:07.294Z,99967.03
2024-01-15T23:10:34.246Z,99967.13
2024-01-15T23:13:01.133Z,99957.50
2024-01-15T23:15:29.719Z,99970.59
2024-01-15T23:18:02.827Z,99977.66
2024-01-15T23:20:29.904Z,99985.56
2024-01-15T23:22:57.108Z,99982.13
2024-01-15T23:25:24.055Z,99991.06
2024-01-15T23:27:51.080Z,99979.66
2024-01-15T23:30:18.291Z,99984.94
2024-01-15T23:32:45.353Z,99992.94
2024-01-15T23:35:13.109Z,99990.38
2024-01-15T23:37:40.864Z,99991.34
2024-01-15T23:40:09.340Z,99985.25
2024-01-15T23:42:36.475Z,99994.00
2024-01-15T23:45:03.786Z,99992.34
2024-01-15T23:47:30.846Z,99997.78
2024-01-15T23:49:57.877Z,100000.41
2024-01-15T23:52:24.843Z,100002.22
2024-01-15T23:54:52.364Z,99997.97
2024-01-15T23:57:19.286Z,100000.69
2024-01-15T23:59:46.227Z,100007.59
